Jennings, Kansas
Current Conditions -  °F | °C
As of 5:53 PM on Monday 24 Nov 2014 (Local Time) from KHLC Reporting Station
Broken Clouds Broken Clouds  
Wind Chill: 26°   Ceiling: 8000
Heat Index: 33°   Visibility: 10mi
Dew Point: 14°   Wind: 8mph
Humidity: 46%   Direction: 350°N
Pressure: 30.02"   Gusts: NA
Location:  39.68°N, 100.29°W
Report Text: KHLC 242353Z AUTO 35007KT 10SM BKN080 01/M10 A3002 RMK AO2 SLP184 T00061100 10106 20006 53028
Loading
Personal Weather Stations






























Interactive Weather Map New forecast layout! Learn more

10-Day Weather Forecast

Advertisements
Track Severe Weather on mobile